createdAt,value
2023-05-01T00:01:34.596Z,16.67
2023-05-01T00:04:02.609Z,16.02
2023-05-01T00:06:30.519Z,18.42
2023-05-01T00:08:57.597Z,17.02
2023-05-01T00:11:25.215Z,20.35
2023-05-01T00:13:52.502Z,18.80
2023-05-01T00:16:19.872Z,15.20
2023-05-01T00:18:47.308Z,19.38
2023-05-01T00:21:14.535Z,18.40
2023-05-01T00:23:41.617Z,19.92
2023-05-01T00:26:08.843Z,17.90
2023-05-01T00:28:36.498Z,15.52
2023-05-01T00:31:03.606Z,17.88
2023-05-01T00:33:30.550Z,16.48
2023-05-01T00:35:57.656Z,18.75
2023-05-01T00:38:25.386Z,19.33
2023-05-01T00:40:52.386Z,17.92
2023-05-01T00:43:19.355Z,16.58
2023-05-01T00:45:46.829Z,17.70
2023-05-01T00:48:15.096Z,16.30
2023-05-01T00:50:43.185Z,32.38
2023-05-01T00:53:11.162Z,33.20
2023-05-01T00:55:42.239Z,21.00
2023-05-01T00:58:10.388Z,25.52
2023-05-01T01:00:38.000Z,16.75
2023-05-01T01:03:05.192Z,16.10
2023-05-01T01:05:39.556Z,18.25
2023-05-01T01:08:12.732Z,18.90
2023-05-01T01:10:57.408Z,17.25
2023-05-01T01:14:09.756Z,17.05
2023-05-01T01:17:13.977Z,15.80
2023-05-01T01:19:59.181Z,19.00
2023-05-01T01:22:28.289Z,18.02
2023-05-01T01:25:20.289Z,16.83
2023-05-01T01:28:23.818Z,17.13
2023-05-01T01:31:05.442Z,19.95
2023-05-01T01:33:55.146Z,18.02
2023-05-01T01:36:32.330Z,18.38
2023-05-01T01:39:25.132Z,18.30
2023-05-01T01:41:54.027Z,19.27
2023-05-01T01:44:49.508Z,16.67
2023-05-01T01:47:18.072Z,19.00
2023-05-01T01:49:50.214Z,18.45
2023-05-01T01:52:19.174Z,18.73
2023-05-01T01:54:54.838Z,17.92
2023-05-01T01:57:24.234Z,17.80
2023-05-01T01:59:52.127Z,17.42
2023-05-01T02:02:21.566Z,18.92
2023-05-01T02:04:50.698Z,16.85
2023-05-01T02:07:19.845Z,18.33
2023-05-01T02:09:50.642Z,17.55
2023-05-01T02:12:20.112Z,16.30
2023-05-01T02:14:51.280Z,15.75
2023-05-01T02:17:21.092Z,18.92
2023-05-01T02:19:49.188Z,16.85
2023-05-01T02:22:18.542Z,18.92
2023-05-01T02:24:47.511Z,16.50
2023-05-01T02:27:20.192Z,21.10
2023-05-01T02:29:47.507Z,16.77
2023-05-01T02:32:15.985Z,19.52
2023-05-01T02:34:43.588Z,14.77
2023-05-01T02:37:12.725Z,18.45
2023-05-01T02:39:42.361Z,14.88
2023-05-01T02:42:12.230Z,15.02
2023-05-01T02:44:43.257Z,15.65
2023-05-01T02:47:16.169Z,18.13
2023-05-01T02:49:44.204Z,15.18
2023-05-01T02:52:13.120Z,18.27
2023-05-01T02:54:41.010Z,15.32
2023-05-01T02:57:08.004Z,14.73
2023-05-01T02:59:35.156Z,16.70
2023-05-01T03:02:02.360Z,16.55
2023-05-01T03:04:29.379Z,15.80
2023-05-01T03:06:57.232Z,17.15
2023-05-01T03:09:24.260Z,18.05
2023-05-01T03:11:51.234Z,14.20
2023-05-01T03:14:18.249Z,15.27
2023-05-01T03:16:45.242Z,14.65
2023-05-01T03:19:12.376Z,13.68
2023-05-01T03:21:39.382Z,13.98
2023-05-01T03:24:06.801Z,13.70
2023-05-01T03:26:34.286Z,13.85
2023-05-01T03:29:01.254Z,12.40
2023-05-01T03:31:28.371Z,12.43
2023-05-01T03:33:57.003Z,16.85
2023-05-01T03:36:25.413Z,13.77
2023-05-01T03:38:53.436Z,13.27
2023-05-01T03:41:38.628Z,12.57
2023-05-01T03:44:11.707Z,15.55
2023-05-01T03:46:42.418Z,13.48
2023-05-01T03:49:14.591Z,13.05
2023-05-01T03:51:46.875Z,13.48
2023-05-01T03:54:15.158Z,12.73
2023-05-01T03:57:00.850Z,12.57
2023-05-01T03:59:27.802Z,13.48
2023-05-01T04:01:55.027Z,12.27
2023-05-01T04:04:22.528Z,15.98
2023-05-01T04:06:55.981Z,10.80
2023-05-01T04:09:23.010Z,12.93
2023-05-01T04:11:49.952Z,13.27
2023-05-01T04:14:17.035Z,12.63
2023-05-01T04:16:43.956Z,11.00
2023-05-01T04:19:10.906Z,11.07
2023-05-01T04:21:42.084Z,11.55
2023-05-01T04:24:09.493Z,23.48
2023-05-01T04:26:36.809Z,16.15
2023-05-01T04:29:03.930Z,18.27
2023-05-01T04:31:31.167Z,13.73
2023-05-01T04:33:58.854Z,18.08
2023-05-01T04:36:25.734Z,14.93
2023-05-01T04:38:52.896Z,12.95
2023-05-01T04:41:19.790Z,14.90
2023-05-01T04:43:48.172Z,13.32
2023-05-01T04:46:18.354Z,13.95
2023-05-01T04:48:45.281Z,21.40
2023-05-01T04:51:12.220Z,15.88
2023-05-01T04:53:40.222Z,17.02
2023-05-01T04:56:16.838Z,14.35
2023-05-01T04:58:45.439Z,11.40
2023-05-01T05:01:18.310Z,11.83
2023-05-01T05:03:47.974Z,13.82
2023-05-01T05:06:16.920Z,9.88
2023-05-01T05:08:43.935Z,18.15
2023-05-01T05:11:11.698Z,16.05
2023-05-01T05:13:49.230Z,21.52
2023-05-01T05:16:16.438Z,31.77
2023-05-01T05:18:46.250Z,15.38
2023-05-01T05:21:13.230Z,14.32
2023-05-01T05:23:46.694Z,15.63
2023-05-01T05:26:13.721Z,11.88
2023-05-01T05:28:41.373Z,16.20
2023-05-01T05:31:08.595Z,15.43
2023-05-01T05:33:36.454Z,16.45
2023-05-01T05:36:04.062Z,13.77
2023-05-01T05:38:36.422Z,15.43
2023-05-01T05:41:06.247Z,13.23
2023-05-01T05:43:33.486Z,18.38
2023-05-01T05:46:00.959Z,17.42
2023-05-01T05:48:29.388Z,17.75
2023-05-01T05:50:56.895Z,18.45
2023-05-01T05:53:25.886Z,15.43
2023-05-01T05:55:54.246Z,9.90
2023-05-01T05:58:22.869Z,14.02
2023-05-01T06:00:50.701Z,10.70
2023-05-01T06:03:20.063Z,13.60
2023-05-01T06:05:48.122Z,16.50
2023-05-01T06:08:15.552Z,11.15
2023-05-01T06:10:44.020Z,11.05
2023-05-01T06:13:13.505Z,7.63
2023-05-01T06:15:44.118Z,7.93
2023-05-01T06:18:12.311Z,8.10
2023-05-01T06:20:39.492Z,7.68
2023-05-01T06:23:06.638Z,6.50
2023-05-01T06:25:50.712Z,6.82
2023-05-01T06:28:17.630Z,9.05
2023-05-01T06:30:44.569Z,6.18
2023-05-01T06:33:13.000Z,10.27
2023-05-01T06:35:42.765Z,7.70
2023-05-01T06:38:10.311Z,8.00
2023-05-01T06:40:37.666Z,10.23
2023-05-01T06:43:05.209Z,8.77
2023-05-01T06:45:32.396Z,11.88
2023-05-01T06:47:59.431Z,12.65
2023-05-01T06:50:26.612Z,8.13
2023-05-01T06:52:53.572Z,8.15
2023-05-01T06:55:20.804Z,8.38
2023-05-01T06:57:47.647Z,8.70
2023-05-01T07:00:15.285Z,9.35
2023-05-01T07:02:42.515Z,7.93
2023-05-01T07:05:09.763Z,10.10
2023-05-01T07:07:38.810Z,6.82
2023-05-01T07:10:07.875Z,7.00
2023-05-01T07:12:34.708Z,9.02
2023-05-01T07:15:01.835Z,10.07
2023-05-01T07:17:29.809Z,5.80
2023-05-01T07:19:56.970Z,7.57
2023-05-01T07:22:24.184Z,6.65
2023-05-01T07:24:51.194Z,6.47
2023-05-01T07:27:18.346Z,7.07
2023-05-01T07:29:45.287Z,7.32
2023-05-01T07:32:12.336Z,6.40
2023-05-01T07:34:39.415Z,9.73
2023-05-01T07:37:06.879Z,7.82
2023-05-01T07:39:33.803Z,6.97
2023-05-01T07:42:00.814Z,6.65
2023-05-01T07:44:27.804Z,7.55
2023-05-01T07:46:55.010Z,7.85
2023-05-01T07:49:22.157Z,6.70
2023-05-01T07:51:49.940Z,7.00
2023-05-01T07:54:17.346Z,8.43
2023-05-01T07:56:44.625Z,8.35
2023-05-01T07:59:12.050Z,7.65
2023-05-01T08:01:38.905Z,7.22
2023-05-01T08:04:05.984Z,6.22
2023-05-01T08:06:35.643Z,8.15
2023-05-01T08:09:02.649Z,7.72
2023-05-01T08:11:30.159Z,5.72
2023-05-01T08:13:57.035Z,10.15
2023-05-01T08:16:24.142Z,7.20
2023-05-01T08:18:51.259Z,7.55
2023-05-01T08:21:18.256Z,5.90
2023-05-01T08:23:45.196Z,6.20
2023-05-01T08:26:12.235Z,7.60
2023-05-01T08:28:39.198Z,4.75
2023-05-01T08:31:06.254Z,9.73
2023-05-01T08:33:33.227Z,7.32
2023-05-01T08:36:00.215Z,8.95
2023-05-01T08:38:27.221Z,6.07
2023-05-01T08:40:54.634Z,5.35
2023-05-01T08:43:21.732Z,5.70
2023-05-01T08:45:49.659Z,6.30
2023-05-01T08:48:18.856Z,7.32
2023-05-01T08:50:47.200Z,8.75
2023-05-01T08:53:17.338Z,7.70
2023-05-01T08:55:48.797Z,3.88
2023-05-01T08:58:18.981Z,4.25
2023-05-01T09:00:47.793Z,3.38
2023-05-01T09:03:16.948Z,5.43
2023-05-01T09:05:44.076Z,5.28
2023-05-01T09:08:11.109Z,7.03
2023-05-01T09:10:45.814Z,9.57
2023-05-01T09:13:12.769Z,7.95
2023-05-01T09:15:39.920Z,7.72
2023-05-01T09:18:09.181Z,4.53
2023-05-01T09:20:37.633Z,5.38
2023-05-01T09:23:05.148Z,4.40
2023-05-01T09:25:32.169Z,4.43
2023-05-01T09:27:59.031Z,5.70
2023-05-01T09:30:32.157Z,4.53
2023-05-01T09:33:26.125Z,4.78
2023-05-01T09:35:55.910Z,5.10
2023-05-01T09:38:27.733Z,3.95
2023-05-01T09:41:03.592Z,3.67
2023-05-01T09:43:31.806Z,5.18
2023-05-01T09:46:13.285Z,3.22
2023-05-01T09:48:40.579Z,5.00
2023-05-01T09:51:25.769Z,4.35
2023-05-01T09:53:56.264Z,3.70
2023-05-01T09:56:24.225Z,4.72
2023-05-01T09:58:52.589Z,2.97
2023-05-01T10:01:37.573Z,4.32
2023-05-01T10:04:04.948Z,3.45
2023-05-01T10:06:32.276Z,3.70
2023-05-01T10:08:59.420Z,3.58
2023-05-01T10:11:27.316Z,3.42
2023-05-01T10:14:10.536Z,4.22
2023-05-01T10:16:38.910Z,4.20
2023-05-01T10:19:06.717Z,2.90
2023-05-01T10:21:34.243Z,4.05
2023-05-01T10:24:06.479Z,3.58
2023-05-01T10:26:37.318Z,3.40
2023-05-01T10:29:04.591Z,4.78
2023-05-01T10:31:33.441Z,3.75
2023-05-01T10:34:06.358Z,2.60
2023-05-01T10:36:46.206Z,3.75
2023-05-01T10:39:32.188Z,3.63
2023-05-01T10:42:14.404Z,2.53
2023-05-01T10:44:42.737Z,3.95
2023-05-01T10:47:24.970Z,3.58
2023-05-01T10:50:16.454Z,3.90
2023-05-01T10:53:18.791Z,3.53
2023-05-01T10:55:49.422Z,3.42
2023-05-01T10:58:39.393Z,2.72
2023-05-01T11:01:30.320Z,3.63
2023-05-01T11:04:01.140Z,3.70
2023-05-01T11:06:29.549Z,3.95
2023-05-01T11:08:57.625Z,3.65
2023-05-01T11:11:27.409Z,2.67
2023-05-01T11:14:11.443Z,2.70
2023-05-01T11:16:47.525Z,4.35
2023-05-01T11:19:29.533Z,2.67
2023-05-01T11:21:57.277Z,4.13
2023-05-01T11:24:33.610Z,26.02
2023-05-01T11:27:02.504Z,2.83
2023-05-01T11:29:33.752Z,3.08
2023-05-01T11:32:04.120Z,5.05
2023-05-01T11:34:42.391Z,3.70
2023-05-01T11:37:10.101Z,3.47
2023-05-01T11:39:37.212Z,3.47
2023-05-01T11:42:09.918Z,3.47
2023-05-01T11:44:37.767Z,3.72
2023-05-01T11:47:07.484Z,4.78
2023-05-01T11:49:34.714Z,3.60
2023-05-01T11:52:01.663Z,5.53
2023-05-01T11:54:28.753Z,3.67
2023-05-01T11:57:01.019Z,3.13
2023-05-01T11:59:28.612Z,3.88
2023-05-01T12:01:55.567Z,4.78
2023-05-01T12:04:31.718Z,5.47
2023-05-01T12:06:59.733Z,3.97
2023-05-01T12:09:27.635Z,2.80
2023-05-01T12:11:54.857Z,3.72
2023-05-01T12:14:22.650Z,3.45
2023-05-01T12:16:49.814Z,8.68
2023-05-01T12:19:17.752Z,7.35
2023-05-01T12:21:44.694Z,3.65
2023-05-01T12:24:15.285Z,8.27
2023-05-01T12:26:43.374Z,3.72
2023-05-01T12:29:10.561Z,4.30
2023-05-01T12:31:47.038Z,4.32
2023-05-01T12:34:14.028Z,3.55
2023-05-01T12:36:41.274Z,5.00
2023-05-01T12:39:12.632Z,3.65
2023-05-01T12:41:39.699Z,3.80
2023-05-01T12:44:26.785Z,4.70
2023-05-01T12:47:03.231Z,3.85
2023-05-01T12:49:31.998Z,4.03
2023-05-01T12:52:02.348Z,4.65
2023-05-01T12:54:34.541Z,3.45
2023-05-01T12:57:09.519Z,5.75
2023-05-01T12:59:42.867Z,3.65
2023-05-01T13:02:16.287Z,4.40
2023-05-01T13:07:19.243Z,4.30
2023-05-01T13:09:58.656Z,4.78
2023-05-01T13:12:27.639Z,4.82
2023-05-01T13:14:56.932Z,4.22
2023-05-01T13:17:26.074Z,5.75
2023-05-01T13:19:57.520Z,4.30
2023-05-01T13:22:38.135Z,5.30
2023-05-01T13:25:15.208Z,3.33
2023-05-01T13:27:47.608Z,4.90
2023-05-01T13:30:14.752Z,3.60
2023-05-01T13:32:42.586Z,3.97
2023-05-01T13:35:09.804Z,3.35
2023-05-01T13:37:36.775Z,4.05
2023-05-01T13:40:03.894Z,5.25
2023-05-01T13:42:31.886Z,9.23
2023-05-01T13:44:59.545Z,6.05
2023-05-01T13:47:27.640Z,2.90
2023-05-01T13:49:55.320Z,5.18
2023-05-01T13:52:22.853Z,5.93
2023-05-01T13:54:56.152Z,9.23
2023-05-01T13:57:23.405Z,6.53
2023-05-01T13:59:50.464Z,9.73
2023-05-01T14:02:25.404Z,36.42
2023-05-01T14:04:52.652Z,23.60
2023-05-01T14:07:21.495Z,25.58
2023-05-01T14:09:56.554Z,12.82
2023-05-01T14:12:33.185Z,11.50
2023-05-01T14:15:02.170Z,10.65
2023-05-01T14:17:32.604Z,12.30
2023-05-01T14:20:00.888Z,6.22
2023-05-01T14:22:43.872Z,5.60
2023-05-01T14:25:30.028Z,7.82
2023-05-01T14:27:58.733Z,6.80
2023-05-01T14:30:34.386Z,7.35
2023-05-01T14:33:04.134Z,14.48
2023-05-01T14:35:31.258Z,8.55
2023-05-01T14:38:15.040Z,6.85
2023-05-01T14:40:42.529Z,5.40
2023-05-01T14:43:17.858Z,5.07
2023-05-01T14:45:46.877Z,5.88
2023-05-01T14:48:23.308Z,5.35
2023-05-01T14:50:51.334Z,5.30
2023-05-01T14:53:18.880Z,5.60
2023-05-01T14:55:46.018Z,4.88
2023-05-01T14:58:13.026Z,5.55
2023-05-01T15:00:39.933Z,10.77
2023-05-01T15:03:08.030Z,5.97
2023-05-01T15:05:36.314Z,4.40
2023-05-01T15:08:04.428Z,5.13
2023-05-01T15:10:32.609Z,5.15
2023-05-01T15:12:59.864Z,6.85
2023-05-01T15:15:27.167Z,4.30
2023-05-01T15:17:54.229Z,5.68
2023-05-01T15:20:21.368Z,4.85
2023-05-01T15:22:48.334Z,6.80
2023-05-01T15:25:16.796Z,5.40
2023-05-01T15:27:45.789Z,5.20
2023-05-01T15:30:14.815Z,4.68
2023-05-01T15:32:42.501Z,5.85
2023-05-01T15:35:09.874Z,6.38
2023-05-01T15:37:40.476Z,6.30
2023-05-01T15:40:08.346Z,8.27
2023-05-01T15:42:35.263Z,6.50
2023-05-01T15:45:03.689Z,7.22
2023-05-01T15:47:31.678Z,5.40
2023-05-01T15:49:58.901Z,4.47
2023-05-01T15:52:27.379Z,4.75
2023-05-01T15:54:55.195Z,4.50
2023-05-01T15:57:22.178Z,6.53
2023-05-01T15:59:54.138Z,5.15
2023-05-01T16:02:21.933Z,4.63
2023-05-01T16:04:49.278Z,5.00
2023-05-01T16:07:16.293Z,4.97
2023-05-01T16:09:43.310Z,6.30
2023-05-01T16:12:10.282Z,4.32
2023-05-01T16:14:41.481Z,5.75
2023-05-01T16:17:08.792Z,4.22
2023-05-01T16:19:37.221Z,4.85
2023-05-01T16:22:06.103Z,5.63
2023-05-01T16:24:34.399Z,4.75
2023-05-01T16:27:01.794Z,5.22
2023-05-01T16:29:29.079Z,5.90
2023-05-01T16:31:56.215Z,4.47
2023-05-01T16:34:27.651Z,5.53
2023-05-01T16:36:56.681Z,5.13
2023-05-01T16:39:24.878Z,4.82
2023-05-01T16:41:54.111Z,5.43
2023-05-01T16:44:22.779Z,4.32
2023-05-01T16:46:54.208Z,6.82
2023-05-01T16:49:22.649Z,5.70
2023-05-01T16:51:49.770Z,7.53
2023-05-01T16:54:18.761Z,9.30
2023-05-01T16:56:45.983Z,6.05
2023-05-01T16:59:12.977Z,12.15
2023-05-01T17:01:39.986Z,12.45
2023-05-01T17:04:07.297Z,9.38
2023-05-01T17:06:34.425Z,7.95
2023-05-01T17:09:01.452Z,6.40
2023-05-01T17:11:30.420Z,7.93
2023-05-01T17:13:58.892Z,6.55
2023-05-01T17:16:26.095Z,6.40
2023-05-01T17:18:53.269Z,6.65
2023-05-01T17:21:25.037Z,6.88
2023-05-01T17:23:52.234Z,7.20
2023-05-01T17:26:19.250Z,9.70
2023-05-01T17:28:47.177Z,5.90
2023-05-01T17:31:15.827Z,5.93
2023-05-01T17:33:46.258Z,8.23
2023-05-01T17:36:13.257Z,5.22
2023-05-01T17:38:40.355Z,6.35
2023-05-01T17:41:07.320Z,6.75
2023-05-01T17:43:34.315Z,8.50
2023-05-01T17:46:02.540Z,6.45
2023-05-01T17:48:29.718Z,6.80
2023-05-01T17:50:58.171Z,9.43
2023-05-01T17:53:26.916Z,7.82
2023-05-01T17:56:00.641Z,8.20
2023-05-01T17:58:28.783Z,9.32
2023-05-01T18:00:58.265Z,7.68
2023-05-01T18:03:26.023Z,6.93
2023-05-01T18:05:53.176Z,8.10
2023-05-01T18:08:20.188Z,9.10
2023-05-01T18:10:47.937Z,8.70
2023-05-01T18:13:15.878Z,6.22
2023-05-01T18:15:43.331Z,6.88
2023-05-01T18:18:10.799Z,8.85
2023-05-01T18:20:37.871Z,5.97
2023-05-01T18:23:05.576Z,6.03
2023-05-01T18:25:33.176Z,6.20
2023-05-01T18:28:00.497Z,6.63
2023-05-01T18:30:28.255Z,8.00
2023-05-01T18:32:55.431Z,5.85
2023-05-01T18:35:22.418Z,4.95
2023-05-01T18:37:51.411Z,5.47
2023-05-01T18:40:19.743Z,6.93
2023-05-01T18:42:47.258Z,7.93
2023-05-01T18:45:15.662Z,7.80
2023-05-01T18:47:42.948Z,7.10
2023-05-01T18:50:10.780Z,8.75
2023-05-01T18:52:37.946Z,6.80
2023-05-01T18:55:06.694Z,7.47
2023-05-01T18:57:33.733Z,8.48
2023-05-01T19:00:01.437Z,13.48
2023-05-01T19:02:28.762Z,10.20
2023-05-01T19:04:57.907Z,7.28
2023-05-01T19:07:26.837Z,7.70
2023-05-01T19:09:54.245Z,8.68
2023-05-01T19:12:22.742Z,7.95
2023-05-01T19:14:49.736Z,8.45
2023-05-01T19:17:16.792Z,7.35
2023-05-01T19:19:44.147Z,7.90
2023-05-01T19:22:11.137Z,6.78
2023-05-01T19:24:38.493Z,6.35
2023-05-01T19:27:05.667Z,6.28
2023-05-01T19:29:32.863Z,6.80
2023-05-01T19:32:02.706Z,9.02
2023-05-01T19:34:29.777Z,8.18
2023-05-01T19:37:02.386Z,7.70
2023-05-01T19:39:32.177Z,7.93
2023-05-01T19:41:59.335Z,9.15
2023-05-01T19:44:26.600Z,9.68
2023-05-01T19:46:53.670Z,7.95
2023-05-01T19:49:21.184Z,7.82
2023-05-01T19:51:48.150Z,8.82
2023-05-01T19:54:15.132Z,9.15
2023-05-01T19:56:42.145Z,9.20
2023-05-01T19:59:09.110Z,7.47
2023-05-01T20:01:39.055Z,12.65
2023-05-01T20:04:06.247Z,16.25
2023-05-01T20:06:33.249Z,10.80
2023-05-01T20:09:00.357Z,8.60
2023-05-01T20:11:27.251Z,8.20
2023-05-01T20:13:54.911Z,8.70
2023-05-01T20:16:22.631Z,10.95
2023-05-01T20:18:49.668Z,9.55
2023-05-01T20:21:16.613Z,9.68
2023-05-01T20:23:43.716Z,9.57
2023-05-01T20:26:12.781Z,9.45
2023-05-01T20:28:39.751Z,10.02
2023-05-01T20:31:07.778Z,9.20
2023-05-01T20:33:34.865Z,7.53
2023-05-01T20:36:06.208Z,7.90
2023-05-01T20:38:39.554Z,9.75
2023-05-01T20:41:06.561Z,8.10
2023-05-01T20:43:33.712Z,8.70
2023-05-01T20:46:00.693Z,8.63
2023-05-01T20:48:27.968Z,10.15
2023-05-01T20:50:55.806Z,7.40
2023-05-01T20:53:22.829Z,8.85
2023-05-01T20:55:52.757Z,8.73
2023-05-01T20:58:19.822Z,10.88
2023-05-01T21:00:48.362Z,9.30
2023-05-01T21:03:17.401Z,14.40
2023-05-01T21:05:44.510Z,10.70
2023-05-01T21:08:11.696Z,8.07
2023-05-01T21:10:40.231Z,6.90
2023-05-01T21:13:07.660Z,6.45
2023-05-01T21:15:36.070Z,8.63
2023-05-01T21:18:03.343Z,9.30
2023-05-01T21:20:36.317Z,8.27
2023-05-01T21:23:03.750Z,6.37
2023-05-01T21:25:32.148Z,6.93
2023-05-01T21:28:03.751Z,6.70
2023-05-01T21:30:33.737Z,7.05
2023-05-01T21:33:14.208Z,6.30
2023-05-01T21:35:43.372Z,6.72
2023-05-01T21:38:10.917Z,6.13
2023-05-01T21:40:42.803Z,6.38
2023-05-01T21:43:10.330Z,5.72
2023-05-01T21:45:42.794Z,5.85
2023-05-01T21:48:10.110Z,7.20
2023-05-01T21:50:38.421Z,6.30
2023-05-01T21:53:08.777Z,6.47
2023-05-01T21:55:36.024Z,5.50
2023-05-01T21:58:03.253Z,5.97
2023-05-01T22:00:30.894Z,5.90
2023-05-01T22:03:03.232Z,7.05
2023-05-01T22:05:32.215Z,5.18
2023-05-01T22:08:00.533Z,5.20
2023-05-01T22:10:27.622Z,5.18
2023-05-01T22:12:54.607Z,6.97
2023-05-01T22:15:21.621Z,4.40
2023-05-01T22:17:48.685Z,5.22
2023-05-01T22:20:15.765Z,6.28
2023-05-01T22:22:43.793Z,6.47
2023-05-01T22:25:12.491Z,6.63
2023-05-01T22:27:39.517Z,7.25
2023-05-01T22:30:07.304Z,5.35
2023-05-01T22:32:34.507Z,5.30
2023-05-01T22:35:02.222Z,7.47
2023-05-01T22:37:29.924Z,5.93
2023-05-01T22:39:57.414Z,8.77
2023-05-01T22:42:25.243Z,9.05
2023-05-01T22:44:52.397Z,8.65
2023-05-01T22:47:19.389Z,7.72
2023-05-01T22:49:46.436Z,8.05
2023-05-01T22:52:13.472Z,7.53
2023-05-01T22:54:40.528Z,9.23
2023-05-01T22:57:08.806Z,8.07
2023-05-01T22:59:35.997Z,9.88
2023-05-01T23:02:05.191Z,8.65
2023-05-01T23:04:32.901Z,9.93
2023-05-01T23:07:00.464Z,9.35
2023-05-01T23:09:30.061Z,10.20
2023-05-01T23:11:56.989Z,11.10
2023-05-01T23:14:25.939Z,12.82
2023-05-01T23:16:52.954Z,13.05
2023-05-01T23:19:24.562Z,11.32
2023-05-01T23:22:04.272Z,11.63
2023-05-01T23:24:49.531Z,11.80
2023-05-01T23:27:18.147Z,13.73
2023-05-01T23:30:05.577Z,20.63
2023-05-01T23:32:34.153Z,16.77
2023-05-01T23:35:20.775Z,35.30
2023-05-01T23:37:48.083Z,22.88
2023-05-01T23:40:15.103Z,55.78
2023-05-01T23:42:42.483Z,21.20
2023-05-01T23:45:09.992Z,61.70
2023-05-01T23:47:39.081Z,102.57
2023-05-01T23:50:06.958Z,27.52
2023-05-01T23:52:34.155Z,26.25
2023-05-01T23:55:01.125Z,15.32
2023-05-01T23:57:28.383Z,27.65
2023-05-01T23:59:55.968Z,55.92
